KMOD/MOD METAR and TAF weather

Enter ICAO airport designator
Station Type Date Time Source
KMOD METAR 2019/06/27 03:53 UTC NOAA

KMOD 270353Z 33013G19KT 10SM CLR 20/07 A2996 RMK AO2 SLP146 T02000067


Station Type Date Time Source
KMOD Decoded METAR 2019/06/27 03:53 UTC NOAA

MODESTO CITY CO SHAM FLD, CA, United States (KMOD) 37-37N 120-57W 29M
Jun 26, 2019 - 11:53 PM EDT / 2019.06.27 0353 UTC
Wind: from the NNW (330 degrees) at 15 MPH (13 KT) gusting to 22 MPH (19 KT):0
Visibility: 10 mile(s):0
Sky conditions: clear
Temperature: 68.0 F (20.0 C)
Dew Point: 44.1 F (6.7 C)
Relative Humidity: 41%
Pressure (altimeter): 29.96 in. Hg (1014 hPa)
ob: KMOD 270353Z 33013G19KT 10SM CLR 20/07 A2996 RMK AO2 SLP146 T02000067
cycle: 4

Station Type Date Time Source
KMOD TAF 2019/06/27 01:51 UTC NOAA

TAF TAF
AMD KMOD 270044Z 2701/2724 32016G23KT P6SM SKC
FM270600 33007KT P6SM SKC

Example: see airport list